createdAt,value
2017-12-24T00:01:45.283Z,9.80
2017-12-24T00:04:12.750Z,9.91
2017-12-24T00:06:40.222Z,9.72
2017-12-24T00:09:07.759Z,9.78
2017-12-24T00:11:35.202Z,9.77
2017-12-24T00:14:02.653Z,9.86
2017-12-24T00:16:30.127Z,9.80
2017-12-24T00:18:57.594Z,9.92
2017-12-24T00:21:25.044Z,9.74
2017-12-24T00:23:52.498Z,9.64
2017-12-24T00:26:19.979Z,9.76
2017-12-24T00:28:47.450Z,9.76
2017-12-24T00:31:14.910Z,9.61
2017-12-24T00:33:42.410Z,9.88
2017-12-24T00:36:09.852Z,9.61
2017-12-24T00:38:37.313Z,9.70
2017-12-24T00:41:04.744Z,9.73
2017-12-24T00:43:32.214Z,9.72
2017-12-24T00:45:59.660Z,9.67
2017-12-24T00:48:27.113Z,9.91
2017-12-24T00:50:54.574Z,9.70
2017-12-24T00:53:22.026Z,9.65
2017-12-24T00:55:49.527Z,9.74
2017-12-24T00:58:16.996Z,9.92
2017-12-24T01:00:44.446Z,9.67
2017-12-24T01:03:11.885Z,9.64
2017-12-24T01:05:39.336Z,9.74
2017-12-24T01:08:06.764Z,9.64
2017-12-24T01:10:34.218Z,9.78
2017-12-24T01:13:01.648Z,9.73
2017-12-24T01:15:29.237Z,9.63
2017-12-24T01:17:56.678Z,9.63
2017-12-24T01:20:24.156Z,9.75
2017-12-24T01:22:51.603Z,9.74
2017-12-24T01:25:19.091Z,9.82
2017-12-24T01:27:46.544Z,9.80
2017-12-24T01:30:13.991Z,9.58
2017-12-24T01:32:41.469Z,9.68
2017-12-24T01:35:08.923Z,9.61
2017-12-24T01:37:36.515Z,9.87
2017-12-24T01:40:04.069Z,9.61
2017-12-24T01:42:31.549Z,9.46
2017-12-24T01:44:58.998Z,9.56
2017-12-24T01:50:21.323Z,9.69
2017-12-24T01:52:48.796Z,9.72
2017-12-24T01:55:16.238Z,9.58
2017-12-24T01:57:43.711Z,9.78
2017-12-24T02:00:11.169Z,9.68
2017-12-24T02:02:38.649Z,9.80
2017-12-24T02:05:06.137Z,9.55
2017-12-24T02:07:33.614Z,9.81
2017-12-24T02:10:01.090Z,9.65
2017-12-24T02:12:28.600Z,9.62
2017-12-24T02:14:56.060Z,9.60
2017-12-24T02:17:23.507Z,9.63
2017-12-24T02:19:50.971Z,9.74
2017-12-24T02:22:18.435Z,9.77
2017-12-24T02:24:45.932Z,9.55
2017-12-24T02:27:13.395Z,9.64
2017-12-24T02:29:40.868Z,9.68
2017-12-24T02:32:08.307Z,9.66
2017-12-24T02:34:35.800Z,9.59
2017-12-24T02:37:03.264Z,9.56
2017-12-24T02:39:30.777Z,9.60
2017-12-24T02:41:58.240Z,9.58
2017-12-24T02:44:25.702Z,9.62
2017-12-24T02:46:53.171Z,9.75
2017-12-24T02:49:20.620Z,9.63
2017-12-24T02:51:48.093Z,9.65
2017-12-24T02:54:15.549Z,9.54
2017-12-24T02:56:43.029Z,9.64
2017-12-24T02:59:10.483Z,9.71
2017-12-24T03:01:37.951Z,9.71
2017-12-24T03:04:05.443Z,9.73
2017-12-24T03:06:32.915Z,9.61
2017-12-24T03:09:00.360Z,9.71
2017-12-24T03:11:27.869Z,9.82
2017-12-24T03:13:55.319Z,9.64
2017-12-24T03:16:22.771Z,9.73
2017-12-24T03:18:50.255Z,9.94
2017-12-24T03:21:17.716Z,9.81
2017-12-24T03:23:45.205Z,9.65
2017-12-24T03:26:12.647Z,9.80
2017-12-24T03:28:40.107Z,9.75
2017-12-24T03:31:07.572Z,10.02
2017-12-24T03:33:35.041Z,9.98
2017-12-24T03:36:02.487Z,9.84
2017-12-24T03:38:29.951Z,9.58
2017-12-24T03:40:57.479Z,9.79
2017-12-24T03:43:24.953Z,9.74
2017-12-24T03:45:52.399Z,9.72
2017-12-24T03:48:19.873Z,9.61
2017-12-24T03:50:47.412Z,9.49
2017-12-24T03:53:14.898Z,9.56
2017-12-24T03:55:42.356Z,9.71
2017-12-24T03:58:09.859Z,9.71
2017-12-24T04:00:37.312Z,9.58
2017-12-24T04:03:04.759Z,9.53
2017-12-24T04:05:32.231Z,9.59
2017-12-24T04:07:59.707Z,9.80
2017-12-24T04:10:27.189Z,9.74
2017-12-24T04:12:54.648Z,9.73
2017-12-24T04:15:22.128Z,9.61
2017-12-24T04:17:49.584Z,9.69
2017-12-24T04:20:17.068Z,9.66
2017-12-24T04:22:44.531Z,9.57
2017-12-24T04:25:11.999Z,9.77
2017-12-24T04:27:39.443Z,9.56
2017-12-24T04:30:06.915Z,9.57
2017-12-24T04:32:34.408Z,9.84
2017-12-24T04:35:01.912Z,9.84
2017-12-24T04:37:29.363Z,9.65
2017-12-24T04:39:56.816Z,9.69
2017-12-24T04:42:24.295Z,9.72
2017-12-24T04:44:51.752Z,9.82
2017-12-24T04:47:19.233Z,9.82
2017-12-24T04:49:46.679Z,9.85
2017-12-24T04:52:14.143Z,9.74
2017-12-24T04:54:41.597Z,9.56
2017-12-24T04:57:09.076Z,9.76
2017-12-24T04:59:36.520Z,9.71
2017-12-24T05:02:04.002Z,9.54
2017-12-24T05:04:31.473Z,9.56
2017-12-24T05:06:58.952Z,9.71
2017-12-24T05:09:26.403Z,9.78
2017-12-24T05:11:53.935Z,9.73
2017-12-24T05:14:21.390Z,9.64
2017-12-24T05:16:48.908Z,9.63
2017-12-24T05:19:16.389Z,9.91
2017-12-24T05:21:43.892Z,9.59
2017-12-24T05:24:11.361Z,9.47
2017-12-24T05:26:38.841Z,9.50
2017-12-24T05:29:06.284Z,9.71
2017-12-24T05:31:33.727Z,9.68
2017-12-24T05:34:01.192Z,9.57
2017-12-24T05:36:28.644Z,9.72
2017-12-24T05:38:56.668Z,9.76
2017-12-24T05:41:24.176Z,9.77
2017-12-24T05:43:51.644Z,9.83
2017-12-24T05:46:19.101Z,9.66
2017-12-24T05:48:46.566Z,9.69
2017-12-24T05:51:14.012Z,9.56
2017-12-24T05:53:41.479Z,9.65
2017-12-24T05:56:08.928Z,9.41
2017-12-24T05:58:36.391Z,9.64
2017-12-24T06:01:03.839Z,9.45
2017-12-24T06:03:31.356Z,9.56
2017-12-24T06:05:58.824Z,9.68
2017-12-24T06:08:26.457Z,9.66
2017-12-24T06:10:54.148Z,9.45
2017-12-24T06:13:21.619Z,9.49
2017-12-24T06:15:49.083Z,9.47
2017-12-24T06:18:16.537Z,9.70
2017-12-24T06:20:44.032Z,9.63
2017-12-24T06:23:11.483Z,9.75
2017-12-24T06:25:38.960Z,9.65
2017-12-24T06:28:06.417Z,9.61
2017-12-24T06:30:33.893Z,9.55
2017-12-24T06:33:01.349Z,9.57
2017-12-24T06:35:29.085Z,9.57
2017-12-24T06:37:56.531Z,9.75
2017-12-24T06:40:24.028Z,9.83
2017-12-24T06:42:51.471Z,9.64
2017-12-24T06:45:18.939Z,9.84
2017-12-24T06:47:46.383Z,9.76
2017-12-24T06:50:13.851Z,9.76
2017-12-24T06:52:41.305Z,9.78
2017-12-24T06:55:08.830Z,9.74
2017-12-24T06:57:36.305Z,9.67
2017-12-24T07:00:03.771Z,9.73
2017-12-24T07:02:31.263Z,9.64
2017-12-24T07:04:58.719Z,9.82
2017-12-24T07:07:26.299Z,9.85
2017-12-24T07:09:53.751Z,9.87
2017-12-24T07:12:21.244Z,9.71
2017-12-24T07:14:48.691Z,9.51
2017-12-24T07:17:16.159Z,9.73
2017-12-24T07:19:43.623Z,9.75
2017-12-24T07:22:11.103Z,9.91
2017-12-24T07:24:38.565Z,9.64
2017-12-24T07:27:06.035Z,9.85
2017-12-24T07:29:33.479Z,9.68
2017-12-24T07:32:01.060Z,9.66
2017-12-24T07:34:28.607Z,9.56
2017-12-24T07:36:56.074Z,9.47
2017-12-24T07:39:23.523Z,9.70
2017-12-24T07:41:51.032Z,9.56
2017-12-24T07:44:18.496Z,9.77
2017-12-24T07:46:45.956Z,9.64
2017-12-24T07:49:13.427Z,9.68
2017-12-24T07:51:41.175Z,9.93
2017-12-24T07:54:08.659Z,9.59
2017-12-24T07:56:36.114Z,9.54
2017-12-24T07:59:03.589Z,9.71
2017-12-24T08:01:31.049Z,9.79
2017-12-24T08:03:58.524Z,9.72
2017-12-24T08:06:25.975Z,9.71
2017-12-24T08:08:53.439Z,9.68
2017-12-24T08:11:21.649Z,9.77
2017-12-24T08:13:49.190Z,9.57
2017-12-24T08:16:16.627Z,9.57
2017-12-24T08:18:44.095Z,9.92
2017-12-24T08:21:11.549Z,9.63
2017-12-24T08:23:39.016Z,9.84
2017-12-24T08:26:06.513Z,9.77
2017-12-24T08:28:34.016Z,9.96
2017-12-24T08:31:01.461Z,9.73
2017-12-24T08:33:28.910Z,9.90
2017-12-24T08:35:56.379Z,9.87
2017-12-24T08:38:23.838Z,9.87
2017-12-24T08:40:51.320Z,10.08
2017-12-24T08:43:18.772Z,9.99
2017-12-24T08:45:46.523Z,9.82
2017-12-24T08:48:14.001Z,10.03
2017-12-24T08:50:41.471Z,9.68
2017-12-24T08:53:08.931Z,9.77
2017-12-24T08:55:36.441Z,9.87
2017-12-24T08:58:03.914Z,9.99
2017-12-24T09:00:31.356Z,9.83
2017-12-24T09:02:58.833Z,10.09
2017-12-24T09:05:26.338Z,9.93
2017-12-24T09:07:53.894Z,9.97
2017-12-24T09:10:21.885Z,9.92
2017-12-24T09:12:49.360Z,9.79
2017-12-24T09:15:16.808Z,9.94
2017-12-24T09:17:44.271Z,9.83
2017-12-24T09:20:11.719Z,9.87
2017-12-24T09:22:39.179Z,9.82
2017-12-24T09:25:06.625Z,9.87
2017-12-24T09:27:34.114Z,9.74
2017-12-24T09:30:01.560Z,10.03
2017-12-24T09:32:29.122Z,10.06
2017-12-24T09:34:56.575Z,10.29
2017-12-24T09:37:24.125Z,9.86
2017-12-24T09:39:51.610Z,9.85
2017-12-24T09:42:19.112Z,10.03
2017-12-24T09:44:46.632Z,9.99
2017-12-24T09:47:14.101Z,10.08
2017-12-24T09:49:41.571Z,9.89
2017-12-24T09:52:09.031Z,9.84
2017-12-24T09:54:36.508Z,9.74
2017-12-24T09:57:03.960Z,9.96
2017-12-24T09:59:31.503Z,9.82
2017-12-24T10:01:58.991Z,9.87
2017-12-24T10:04:26.459Z,9.88
2017-12-24T10:06:53.928Z,9.90
2017-12-24T10:09:21.534Z,9.92
2017-12-24T10:20:30.572Z,10.11
2017-12-24T10:22:58.130Z,10.05
2017-12-24T10:25:25.627Z,10.00
2017-12-24T10:27:53.067Z,9.98
2017-12-24T10:30:20.576Z,9.92
2017-12-24T10:32:48.120Z,9.77
2017-12-24T10:35:15.577Z,9.87
2017-12-24T10:37:43.073Z,9.97
2017-12-24T10:40:10.592Z,10.03
2017-12-24T10:42:38.070Z,9.81
2017-12-24T10:45:05.535Z,9.86
2017-12-24T10:47:33.011Z,9.90
2017-12-24T10:50:00.461Z,9.94
2017-12-24T10:52:27.944Z,9.93
2017-12-24T10:54:55.382Z,9.91
2017-12-24T10:57:22.886Z,10.01
2017-12-24T10:59:50.435Z,9.84
2017-12-24T11:02:17.919Z,9.87
2017-12-24T11:04:45.381Z,9.92
2017-12-24T11:07:12.885Z,9.85
2017-12-24T11:09:40.349Z,10.03
2017-12-24T11:12:07.825Z,10.14
2017-12-24T11:14:35.379Z,10.31
2017-12-24T11:17:02.848Z,10.00
2017-12-24T11:19:30.320Z,10.14
2017-12-24T11:21:57.808Z,10.02
2017-12-24T11:24:25.293Z,9.99
2017-12-24T11:26:52.749Z,10.11
2017-12-24T11:29:20.225Z,9.94
2017-12-24T11:31:47.689Z,10.17
2017-12-24T11:34:15.164Z,10.11
2017-12-24T11:36:42.641Z,10.20
2017-12-24T11:39:10.160Z,9.98
2017-12-24T11:41:37.621Z,10.09
2017-12-24T11:44:05.125Z,10.00
2017-12-24T11:46:32.574Z,9.89
2017-12-24T11:49:00.051Z,9.80
2017-12-24T11:51:27.555Z,10.12
2017-12-24T11:53:55.060Z,10.05
2017-12-24T11:58:56.366Z,10.12
2017-12-24T12:01:23.819Z,10.11
2017-12-24T12:03:51.353Z,10.13
2017-12-24T12:06:18.836Z,10.08
2017-12-24T12:08:46.287Z,10.42
2017-12-24T12:11:13.751Z,10.24
2017-12-24T12:13:41.203Z,10.39
2017-12-24T12:16:08.667Z,10.17
2017-12-24T12:18:36.129Z,10.39
2017-12-24T12:21:03.714Z,10.32
2017-12-24T12:23:31.237Z,10.09
2017-12-24T12:25:58.784Z,10.11
2017-12-24T12:28:26.349Z,10.03
2017-12-24T12:30:53.852Z,10.09
2017-12-24T12:33:21.316Z,10.04
2017-12-24T12:35:48.778Z,10.01
2017-12-24T12:38:16.285Z,10.09
2017-12-24T12:40:43.768Z,10.24
2017-12-24T12:43:11.236Z,10.02
2017-12-24T12:45:38.687Z,10.24
2017-12-24T12:48:06.181Z,10.08
2017-12-24T12:50:33.655Z,9.85
2017-12-24T12:53:01.111Z,9.91
2017-12-24T12:55:28.555Z,9.98
2017-12-24T13:00:29.739Z,9.98
2017-12-24T13:02:57.312Z,10.03
2017-12-24T13:05:24.862Z,9.98
2017-12-24T13:07:52.335Z,10.09
2017-12-24T13:10:19.786Z,10.12
2017-12-24T13:12:47.296Z,10.01
2017-12-24T13:15:14.773Z,10.00
2017-12-24T13:17:42.225Z,10.13
2017-12-24T13:20:09.744Z,10.11
2017-12-24T13:22:37.274Z,10.08
2017-12-24T13:25:05.077Z,9.99
2017-12-24T13:27:32.609Z,9.97
2017-12-24T13:30:00.133Z,10.12
2017-12-24T13:32:27.584Z,10.08
2017-12-24T13:34:55.128Z,10.01
2017-12-24T13:37:22.628Z,9.93
2017-12-24T13:39:50.184Z,10.07
2017-12-24T13:42:17.632Z,9.97
2017-12-24T13:44:45.127Z,9.91
2017-12-24T13:47:12.599Z,10.07
2017-12-24T13:49:40.109Z,10.06
2017-12-24T13:52:07.604Z,9.98
2017-12-24T13:54:35.121Z,10.12
2017-12-24T13:57:02.592Z,10.00
2017-12-24T13:59:30.063Z,10.23
2017-12-24T14:01:57.578Z,10.37
2017-12-24T14:04:25.068Z,9.92
2017-12-24T14:06:52.520Z,9.98
2017-12-24T14:09:19.966Z,9.93
2017-12-24T14:11:47.517Z,9.97
2017-12-24T14:14:14.998Z,9.98
2017-12-24T14:16:42.468Z,9.90
2017-12-24T14:19:09.962Z,9.94
2017-12-24T14:21:37.436Z,10.06
2017-12-24T14:24:04.961Z,9.89
2017-12-24T14:26:32.437Z,9.91
2017-12-24T14:28:59.905Z,10.09
2017-12-24T14:31:27.384Z,10.04
2017-12-24T14:33:54.867Z,9.81
2017-12-24T14:36:22.386Z,9.76
2017-12-24T14:38:49.839Z,9.74
2017-12-24T14:41:17.410Z,9.72
2017-12-24T14:43:44.897Z,9.88
2017-12-24T14:46:12.344Z,9.71
2017-12-24T14:48:39.817Z,9.81
2017-12-24T14:51:07.270Z,9.75
2017-12-24T14:53:34.758Z,9.73
2017-12-24T14:56:02.208Z,9.68
2017-12-24T14:58:29.735Z,9.75
2017-12-24T15:00:57.184Z,9.90
2017-12-24T15:03:24.655Z,9.99
2017-12-24T15:05:52.116Z,9.82
2017-12-24T15:08:19.609Z,9.94
2017-12-24T15:10:47.086Z,9.89
2017-12-24T15:13:14.554Z,9.73
2017-12-24T15:15:42.005Z,9.88
2017-12-24T15:18:09.511Z,9.76
2017-12-24T15:20:36.961Z,9.62
2017-12-24T15:23:04.457Z,9.93
2017-12-24T15:25:31.915Z,9.92
2017-12-24T15:27:59.376Z,10.13
2017-12-24T15:30:26.848Z,9.94
2017-12-24T15:32:54.305Z,9.86
2017-12-24T15:35:21.780Z,9.77
2017-12-24T15:37:49.236Z,9.86
2017-12-24T15:40:16.748Z,9.74
2017-12-24T15:42:44.205Z,9.99
2017-12-24T15:45:11.663Z,9.76
2017-12-24T15:47:39.150Z,9.80
2017-12-24T15:50:06.680Z,9.79
2017-12-24T15:52:34.141Z,9.90
2017-12-24T15:55:01.649Z,9.73
2017-12-24T15:57:29.129Z,9.80
2017-12-24T15:59:56.608Z,9.74
2017-12-24T16:02:24.179Z,10.04
2017-12-24T16:04:51.637Z,9.86
2017-12-24T16:07:19.209Z,9.93
2017-12-24T16:09:46.745Z,9.72
2017-12-24T16:12:14.231Z,9.97
2017-12-24T16:17:34.230Z,10.15
2017-12-24T16:20:01.684Z,10.12
2017-12-24T16:22:29.194Z,9.98
2017-12-24T16:24:56.663Z,10.01
2017-12-24T16:27:24.137Z,10.13
2017-12-24T16:29:51.584Z,9.99
2017-12-24T16:32:19.051Z,9.97
2017-12-24T16:34:46.493Z,9.94
2017-12-24T16:37:13.958Z,9.99
2017-12-24T16:39:41.503Z,9.99
2017-12-24T16:42:09.002Z,10.24
2017-12-24T16:44:36.446Z,9.91
2017-12-24T16:47:03.910Z,10.10
2017-12-24T16:49:31.414Z,10.02
2017-12-24T16:51:58.881Z,9.86
2017-12-24T16:54:26.349Z,9.88
2017-12-24T16:56:53.875Z,9.89
2017-12-24T16:59:21.323Z,10.17
2017-12-24T17:01:48.820Z,9.93
2017-12-24T17:04:16.300Z,9.98
2017-12-24T17:06:43.752Z,9.96
2017-12-24T17:09:11.216Z,9.78
2017-12-24T17:11:38.715Z,9.82
2017-12-24T17:14:06.180Z,9.73
2017-12-24T17:16:33.640Z,9.87
2017-12-24T17:19:01.118Z,9.73
2017-12-24T17:21:28.596Z,9.78
2017-12-24T17:23:56.076Z,9.85
2017-12-24T17:26:23.527Z,9.95
2017-12-24T17:28:51.047Z,9.84
2017-12-24T17:31:18.498Z,9.83
2017-12-24T17:33:45.986Z,9.86
2017-12-24T17:36:13.435Z,9.65
2017-12-24T17:38:40.879Z,9.85
2017-12-24T17:41:08.365Z,9.69
2017-12-24T17:43:35.815Z,9.72
2017-12-24T17:46:03.279Z,9.62
2017-12-24T17:48:30.730Z,9.75
2017-12-24T17:50:58.343Z,9.68
2017-12-24T17:53:25.789Z,9.90
2017-12-24T17:55:53.255Z,9.90
2017-12-24T17:58:20.709Z,9.64
2017-12-24T18:00:48.175Z,9.77
2017-12-24T18:03:15.624Z,9.63
2017-12-24T18:05:43.099Z,9.83
2017-12-24T18:08:10.550Z,9.66
2017-12-24T18:10:38.006Z,9.53
2017-12-24T18:13:05.457Z,9.52
2017-12-24T18:15:33.032Z,9.48
2017-12-24T18:18:00.479Z,9.54
2017-12-24T18:20:27.947Z,9.50
2017-12-24T18:22:55.391Z,9.57
2017-12-24T18:25:22.838Z,9.91
2017-12-24T18:27:50.311Z,9.74
2017-12-24T18:30:17.780Z,9.70
2017-12-24T18:32:45.259Z,9.88
2017-12-24T18:35:12.710Z,9.55
2017-12-24T18:37:40.237Z,9.62
2017-12-24T18:40:07.693Z,9.62
2017-12-24T18:42:35.159Z,9.80
2017-12-24T18:45:02.660Z,9.92
2017-12-24T18:47:30.136Z,9.70
2017-12-24T18:49:57.588Z,9.66
2017-12-24T18:52:25.079Z,9.67
2017-12-24T18:54:52.659Z,9.60
2017-12-24T18:57:20.201Z,9.77
2017-12-24T18:59:47.638Z,9.51
2017-12-24T19:02:15.092Z,9.69
2017-12-24T19:04:42.550Z,9.65
2017-12-24T19:07:10.029Z,9.61
2017-12-24T19:09:37.581Z,9.60
2017-12-24T19:12:05.029Z,9.64
2017-12-24T19:14:32.504Z,9.60
2017-12-24T19:16:59.951Z,9.47
2017-12-24T19:19:27.412Z,9.33
2017-12-24T19:21:54.916Z,9.51
2017-12-24T19:24:22.380Z,9.53
2017-12-24T19:26:49.832Z,9.42
2017-12-24T19:29:17.315Z,9.47
2017-12-24T19:31:44.772Z,9.44
2017-12-24T19:34:12.355Z,9.49
2017-12-24T19:36:39.819Z,9.44
2017-12-24T19:39:07.270Z,9.38
2017-12-24T19:41:34.831Z,9.62
2017-12-24T19:44:02.279Z,9.34
2017-12-24T19:46:29.762Z,9.49
2017-12-24T19:48:57.227Z,9.62
2017-12-24T19:51:24.698Z,9.55
2017-12-24T19:53:52.143Z,9.40
2017-12-24T19:56:19.616Z,9.72
2017-12-24T19:58:47.079Z,9.58
2017-12-24T20:01:14.546Z,9.51
2017-12-24T20:03:42.048Z,9.39
2017-12-24T20:06:09.519Z,9.60
2017-12-24T20:08:36.959Z,9.53
2017-12-24T20:11:04.412Z,9.35
2017-12-24T20:13:31.883Z,9.21
2017-12-24T20:15:59.332Z,9.55
2017-12-24T20:18:26.798Z,9.59
2017-12-24T20:20:54.329Z,9.39
2017-12-24T20:23:21.798Z,9.46
2017-12-24T20:25:49.247Z,9.47
2017-12-24T20:28:16.740Z,9.37
2017-12-24T20:30:44.260Z,9.27
2017-12-24T20:33:11.728Z,9.46
2017-12-24T20:35:39.273Z,9.40
2017-12-24T20:38:06.739Z,9.40
2017-12-24T20:40:34.185Z,9.27
2017-12-24T20:43:01.646Z,9.44
2017-12-24T20:45:29.108Z,9.45
2017-12-24T20:47:56.585Z,9.56
2017-12-24T20:50:24.043Z,9.43
2017-12-24T20:52:51.507Z,9.60
2017-12-24T20:55:18.960Z,9.33
2017-12-24T20:57:46.448Z,9.29
2017-12-24T21:00:13.953Z,9.52
2017-12-24T21:02:41.408Z,9.42
2017-12-24T21:05:08.874Z,9.33
2017-12-24T21:07:36.325Z,9.31
2017-12-24T21:10:03.791Z,9.53
2017-12-24T21:12:31.236Z,9.43
2017-12-24T21:14:58.713Z,9.24
2017-12-24T21:17:26.165Z,9.21
2017-12-24T21:19:53.646Z,9.15
2017-12-24T21:22:21.117Z,9.28
2017-12-24T21:24:48.591Z,9.28
2017-12-24T21:29:43.515Z,9.11
2017-12-24T21:32:10.959Z,9.14
2017-12-24T21:34:38.427Z,9.29
2017-12-24T21:37:05.888Z,9.13
2017-12-24T21:39:33.354Z,9.40
2017-12-24T21:42:00.919Z,9.40
2017-12-24T21:44:28.464Z,9.27
2017-12-24T21:46:55.903Z,9.49
2017-12-24T21:49:23.397Z,9.22
2017-12-24T21:51:50.867Z,9.36
2017-12-24T21:54:18.414Z,9.34
2017-12-24T21:56:45.871Z,9.17
2017-12-24T21:59:13.408Z,9.38
2017-12-24T22:01:40.891Z,9.48
2017-12-24T22:04:08.335Z,9.35
2017-12-24T22:06:35.802Z,9.41
2017-12-24T22:09:03.264Z,9.15
2017-12-24T22:11:30.751Z,9.19
2017-12-24T22:13:58.207Z,9.20
2017-12-24T22:16:25.679Z,9.30
2017-12-24T22:18:53.143Z,9.33
2017-12-24T22:21:20.616Z,9.15
2017-12-24T22:23:48.129Z,9.24
2017-12-24T22:26:15.642Z,8.99
2017-12-24T22:28:43.113Z,9.06
2017-12-24T22:31:10.554Z,9.03
2017-12-24T22:33:38.019Z,9.25
2017-12-24T22:36:05.680Z,9.21
2017-12-24T22:38:33.154Z,9.09
2017-12-24T22:41:00.595Z,9.33
2017-12-24T22:43:28.071Z,9.16
2017-12-24T22:45:55.666Z,9.39
2017-12-24T22:48:23.135Z,9.16
2017-12-24T22:50:50.601Z,9.17
2017-12-24T22:53:18.168Z,9.01
2017-12-24T22:55:45.632Z,9.21
2017-12-24T22:58:13.186Z,9.07
2017-12-24T23:00:40.632Z,9.06
2017-12-24T23:03:08.080Z,9.00
2017-12-24T23:05:35.560Z,9.14
2017-12-24T23:08:03.029Z,9.04
2017-12-24T23:10:30.563Z,9.29
2017-12-24T23:12:58.048Z,9.07
2017-12-24T23:15:25.539Z,9.10
2017-12-24T23:17:52.987Z,9.09
2017-12-24T23:20:20.452Z,9.14
2017-12-24T23:22:47.911Z,9.28
2017-12-24T23:25:15.407Z,9.21
2017-12-24T23:27:42.852Z,9.08
2017-12-24T23:30:10.341Z,9.16
2017-12-24T23:32:37.880Z,9.03
2017-12-24T23:35:05.342Z,9.08
2017-12-24T23:37:32.779Z,9.03
2017-12-24T23:40:00.249Z,8.89
2017-12-24T23:42:27.698Z,8.91
2017-12-24T23:44:55.182Z,8.85
2017-12-24T23:47:22.636Z,8.93
2017-12-24T23:49:50.102Z,8.97
2017-12-24T23:52:17.546Z,8.85
2017-12-24T23:54:45.049Z,8.98
2017-12-24T23:57:12.495Z,8.85
2017-12-24T23:59:39.950Z,8.93
